sensor_id;sensor_type;location;lat;lon;timestamp;P1;durP1;ratioP1;P2;durP2;ratioP2
9392;SDS011;4736;52.508;13.422;2023-02-16T00:00:02;31.57;;;26.00;;
9392;SDS011;4736;52.508;13.422;2023-02-16T00:03:08;28.90;;;24.60;;
9392;SDS011;4736;52.508;13.422;2023-02-16T00:06:12;30.30;;;23.17;;
9392;SDS011;4736;52.508;13.422;2023-02-16T00:09:17;28.17;;;21.60;;
9392;SDS011;4736;52.508;13.422;2023-02-16T00:12:22;22.97;;;19.73;;
9392;SDS011;4736;52.508;13.422;2023-02-16T00:15:39;29.13;;;23.67;;
9392;SDS011;4736;52.508;13.422;2023-02-16T00:18:42;27.70;;;21.37;;
9392;SDS011;4736;52.508;13.422;2023-02-16T00:21:46;27.27;;;22.63;;
9392;SDS011;4736;52.508;13.422;2023-02-16T00:24:49;29.43;;;23.47;;
9392;SDS011;4736;52.508;13.422;2023-02-16T00:27:54;26.80;;;23.13;;
9392;SDS011;4736;52.508;13.422;2023-02-16T00:30:57;23.10;;;20.27;;
9392;SDS011;4736;52.508;13.422;2023-02-16T00:34:05;26.97;;;21.10;;
9392;SDS011;4736;52.508;13.422;2023-02-16T00:37:21;28.40;;;23.33;;
9392;SDS011;4736;52.508;13.422;2023-02-16T00:40:24;22.23;;;19.37;;
9392;SDS011;4736;52.508;13.422;2023-02-16T00:43:29;22.97;;;18.67;;
9392;SDS011;4736;52.508;13.422;2023-02-16T00:46:33;19.07;;;16.97;;
9392;SDS011;4736;52.508;13.422;2023-02-16T00:49:36;26.93;;;22.13;;
9392;SDS011;4736;52.508;13.422;2023-02-16T00:52:39;27.13;;;22.83;;
9392;SDS011;4736;52.508;13.422;2023-02-16T00:55:43;28.33;;;23.67;;
9392;SDS011;4736;52.508;13.422;2023-02-16T00:58:49;25.20;;;22.23;;
9392;SDS011;4736;52.508;13.422;2023-02-16T01:01:53;26.50;;;21.67;;
9392;SDS011;4736;52.508;13.422;2023-02-16T01:04:57;22.80;;;20.30;;
9392;SDS011;4736;52.508;13.422;2023-02-16T01:08:01;22.07;;;18.73;;
9392;SDS011;4736;52.508;13.422;2023-02-16T01:11:18;22.90;;;20.50;;
9392;SDS011;4736;52.508;13.422;2023-02-16T01:14:23;23.13;;;20.67;;
9392;SDS011;4736;52.508;13.422;2023-02-16T01:17:26;28.83;;;23.10;;
9392;SDS011;4736;52.508;13.422;2023-02-16T01:20:30;26.57;;;23.67;;
9392;SDS011;4736;52.508;13.422;2023-02-16T01:23:33;21.27;;;18.93;;
9392;SDS011;4736;52.508;13.422;2023-02-16T01:26:37;20.43;;;18.03;;
9392;SDS011;4736;52.508;13.422;2023-02-16T01:29:43;19.63;;;17.53;;
9392;SDS011;4736;52.508;13.422;2023-02-16T01:32:47;18.87;;;16.93;;
9392;SDS011;4736;52.508;13.422;2023-02-16T01:35:52;19.43;;;17.53;;
9392;SDS011;4736;52.508;13.422;2023-02-16T01:38:56;27.20;;;20.80;;
9392;SDS011;4736;52.508;13.422;2023-02-16T01:42:07;27.77;;;21.57;;
9392;SDS011;4736;52.508;13.422;2023-02-16T01:45:22;23.30;;;19.20;;
9392;SDS011;4736;52.508;13.422;2023-02-16T01:48:34;30.90;;;24.17;;
9392;SDS011;4736;52.508;13.422;2023-02-16T01:51:40;28.87;;;22.13;;
9392;SDS011;4736;52.508;13.422;2023-02-16T01:54:51;28.13;;;22.63;;
9392;SDS011;4736;52.508;13.422;2023-02-16T01:57:58;28.87;;;23.77;;
9392;SDS011;4736;52.508;13.422;2023-02-16T02:04:39;20.00;;;17.90;;
9392;SDS011;4736;52.508;13.422;2023-02-16T02:08:10;21.13;;;18.90;;
9392;SDS011;4736;52.508;13.422;2023-02-16T02:11:19;25.17;;;22.03;;
9392;SDS011;4736;52.508;13.422;2023-02-16T02:14:27;21.83;;;18.33;;
9392;SDS011;4736;52.508;13.422;2023-02-16T02:17:35;23.17;;;20.67;;
9392;SDS011;4736;52.508;13.422;2023-02-16T02:20:51;23.23;;;19.47;;
9392;SDS011;4736;52.508;13.422;2023-02-16T02:24:29;21.20;;;18.90;;
9392;SDS011;4736;52.508;13.422;2023-02-16T02:27:55;22.13;;;18.53;;
9392;SDS011;4736;52.508;13.422;2023-02-16T02:31:04;23.93;;;21.43;;
9392;SDS011;4736;52.508;13.422;2023-02-16T02:34:14;20.97;;;17.47;;
9392;SDS011;4736;52.508;13.422;2023-02-16T02:37:25;19.57;;;16.13;;
9392;SDS011;4736;52.508;13.422;2023-02-16T02:40:41;25.23;;;19.77;;
9392;SDS011;4736;52.508;13.422;2023-02-16T02:43:58;25.57;;;20.70;;
9392;SDS011;4736;52.508;13.422;2023-02-16T02:47:04;20.23;;;17.67;;
9392;SDS011;4736;52.508;13.422;2023-02-16T02:54:11;17.40;;;15.63;;
9392;SDS011;4736;52.508;13.422;2023-02-16T02:57:36;18.03;;;16.13;;
9392;SDS011;4736;52.508;13.422;2023-02-16T03:01:01;20.27;;;18.13;;
9392;SDS011;4736;52.508;13.422;2023-02-16T03:04:05;25.07;;;20.83;;
9392;SDS011;4736;52.508;13.422;2023-02-16T03:07:13;21.27;;;18.93;;
9392;SDS011;4736;52.508;13.422;2023-02-16T03:10:18;19.43;;;17.20;;
9392;SDS011;4736;52.508;13.422;2023-02-16T03:13:43;27.40;;;20.70;;
9392;SDS011;4736;52.508;13.422;2023-02-16T03:16:51;32.07;;;23.53;;
9392;SDS011;4736;52.508;13.422;2023-02-16T03:20:14;24.37;;;20.97;;
9392;SDS011;4736;52.508;13.422;2023-02-16T03:23:35;23.63;;;19.37;;
9392;SDS011;4736;52.508;13.422;2023-02-16T03:27:00;19.07;;;17.10;;
9392;SDS011;4736;52.508;13.422;2023-02-16T03:30:21;29.53;;;22.47;;
9392;SDS011;4736;52.508;13.422;2023-02-16T03:33:28;25.73;;;20.93;;
9392;SDS011;4736;52.508;13.422;2023-02-16T03:36:33;26.90;;;21.70;;
9392;SDS011;4736;52.508;13.422;2023-02-16T03:39:38;28.30;;;22.50;;
9392;SDS011;4736;52.508;13.422;2023-02-16T03:42:56;24.83;;;19.83;;
9392;SDS011;4736;52.508;13.422;2023-02-16T03:46:01;23.90;;;20.83;;
9392;SDS011;4736;52.508;13.422;2023-02-16T03:49:06;23.23;;;20.77;;
9392;SDS011;4736;52.508;13.422;2023-02-16T03:52:10;24.93;;;21.50;;
9392;SDS011;4736;52.508;13.422;2023-02-16T03:55:13;28.17;;;21.87;;
9392;SDS011;4736;52.508;13.422;2023-02-16T03:58:17;21.20;;;18.67;;
9392;SDS011;4736;52.508;13.422;2023-02-16T04:01:22;24.53;;;20.37;;
9392;SDS011;4736;52.508;13.422;2023-02-16T04:04:27;23.17;;;20.17;;
9392;SDS011;4736;52.508;13.422;2023-02-16T04:07:31;26.20;;;21.83;;
9392;SDS011;4736;52.508;13.422;2023-02-16T04:10:34;23.00;;;20.10;;
9392;SDS011;4736;52.508;13.422;2023-02-16T04:13:38;26.73;;;21.93;;
9392;SDS011;4736;52.508;13.422;2023-02-16T04:16:40;23.03;;;20.37;;
9392;SDS011;4736;52.508;13.422;2023-02-16T04:19:44;24.93;;;20.50;;
9392;SDS011;4736;52.508;13.422;2023-02-16T04:22:48;24.20;;;20.03;;
9392;SDS011;4736;52.508;13.422;2023-02-16T04:25:51;24.67;;;20.30;;
9392;SDS011;4736;52.508;13.422;2023-02-16T04:28:54;25.40;;;20.43;;
9392;SDS011;4736;52.508;13.422;2023-02-16T04:31:57;22.67;;;19.17;;
9392;SDS011;4736;52.508;13.422;2023-02-16T04:35:03;24.70;;;19.83;;
9392;SDS011;4736;52.508;13.422;2023-02-16T04:38:06;23.53;;;19.20;;
9392;SDS011;4736;52.508;13.422;2023-02-16T04:41:13;22.23;;;19.20;;
9392;SDS011;4736;52.508;13.422;2023-02-16T04:44:16;21.27;;;18.97;;
9392;SDS011;4736;52.508;13.422;2023-02-16T04:47:19;24.77;;;19.33;;
9392;SDS011;4736;52.508;13.422;2023-02-16T04:50:28;19.27;;;17.20;;
9392;SDS011;4736;52.508;13.422;2023-02-16T04:53:32;20.67;;;18.37;;
9392;SDS011;4736;52.508;13.422;2023-02-16T04:56:35;26.03;;;19.07;;
9392;SDS011;4736;52.508;13.422;2023-02-16T04:59:38;21.60;;;18.50;;
9392;SDS011;4736;52.508;13.422;2023-02-16T05:02:41;19.33;;;16.93;;
9392;SDS011;4736;52.508;13.422;2023-02-16T05:05:46;22.10;;;19.70;;
9392;SDS011;4736;52.508;13.422;2023-02-16T05:08:49;21.90;;;19.00;;
9392;SDS011;4736;52.508;13.422;2023-02-16T05:11:52;21.90;;;19.13;;
9392;SDS011;4736;52.508;13.422;2023-02-16T05:15:13;24.30;;;18.97;;
9392;SDS011;4736;52.508;13.422;2023-02-16T05:18:16;23.10;;;19.23;;
9392;SDS011;4736;52.508;13.422;2023-02-16T05:21:20;22.13;;;18.20;;
9392;SDS011;4736;52.508;13.422;2023-02-16T05:24:33;20.03;;;17.37;;
9392;SDS011;4736;52.508;13.422;2023-02-16T05:27:36;17.60;;;15.17;;
9392;SDS011;4736;52.508;13.422;2023-02-16T05:30:39;21.77;;;17.93;;
9392;SDS011;4736;52.508;13.422;2023-02-16T05:33:42;23.10;;;18.60;;
9392;SDS011;4736;52.508;13.422;2023-02-16T05:36:47;18.83;;;16.80;;
9392;SDS011;4736;52.508;13.422;2023-02-16T05:39:53;21.63;;;18.27;;
9392;SDS011;4736;52.508;13.422;2023-02-16T05:42:56;20.40;;;17.23;;
9392;SDS011;4736;52.508;13.422;2023-02-16T05:45:59;20.67;;;18.50;;
9392;SDS011;4736;52.508;13.422;2023-02-16T05:49:08;27.13;;;20.57;;
9392;SDS011;4736;52.508;13.422;2023-02-16T05:52:12;26.53;;;19.67;;
9392;SDS011;4736;52.508;13.422;2023-02-16T05:55:16;22.70;;;18.57;;
9392;SDS011;4736;52.508;13.422;2023-02-16T05:58:19;27.13;;;20.93;;
9392;SDS011;4736;52.508;13.422;2023-02-16T06:01:23;24.57;;;19.50;;
9392;SDS011;4736;52.508;13.422;2023-02-16T06:04:26;21.90;;;17.87;;
9392;SDS011;4736;52.508;13.422;2023-02-16T06:07:31;19.17;;;17.17;;
9392;SDS011;4736;52.508;13.422;2023-02-16T06:10:34;17.83;;;16.03;;
9392;SDS011;4736;52.508;13.422;2023-02-16T06:13:37;21.10;;;18.07;;
9392;SDS011;4736;52.508;13.422;2023-02-16T06:16:42;24.93;;;20.53;;
9392;SDS011;4736;52.508;13.422;2023-02-16T06:19:47;22.67;;;19.13;;
9392;SDS011;4736;52.508;13.422;2023-02-16T06:22:52;24.07;;;20.57;;
9392;SDS011;4736;52.508;13.422;2023-02-16T06:25:55;23.00;;;18.00;;
9392;SDS011;4736;52.508;13.422;2023-02-16T06:28:58;20.33;;;17.97;;
9392;SDS011;4736;52.508;13.422;2023-02-16T06:32:01;21.47;;;17.90;;
9392;SDS011;4736;52.508;13.422;2023-02-16T06:35:04;21.97;;;17.50;;
9392;SDS011;4736;52.508;13.422;2023-02-16T06:38:09;26.17;;;19.00;;
9392;SDS011;4736;52.508;13.422;2023-02-16T06:41:12;23.53;;;19.47;;
9392;SDS011;4736;52.508;13.422;2023-02-16T06:44:31;20.80;;;17.93;;
9392;SDS011;4736;52.508;13.422;2023-02-16T06:47:34;21.50;;;19.07;;
9392;SDS011;4736;52.508;13.422;2023-02-16T06:50:38;26.90;;;20.60;;
9392;SDS011;4736;52.508;13.422;2023-02-16T06:53:43;28.33;;;19.37;;
9392;SDS011;4736;52.508;13.422;2023-02-16T06:56:46;23.70;;;20.37;;
9392;SDS011;4736;52.508;13.422;2023-02-16T06:59:50;25.70;;;20.17;;
9392;SDS011;4736;52.508;13.422;2023-02-16T07:02:53;29.93;;;22.40;;
9392;SDS011;4736;52.508;13.422;2023-02-16T07:05:56;25.03;;;20.20;;
9392;SDS011;4736;52.508;13.422;2023-02-16T07:09:00;29.57;;;20.67;;
9392;SDS011;4736;52.508;13.422;2023-02-16T07:12:05;25.50;;;20.13;;
9392;SDS011;4736;52.508;13.422;2023-02-16T07:15:09;27.40;;;22.00;;
9392;SDS011;4736;52.508;13.422;2023-02-16T07:18:12;23.73;;;19.77;;
9392;SDS011;4736;52.508;13.422;2023-02-16T07:21:15;25.03;;;18.63;;
9392;SDS011;4736;52.508;13.422;2023-02-16T07:24:20;25.23;;;19.03;;
9392;SDS011;4736;52.508;13.422;2023-02-16T07:27:24;27.63;;;19.60;;
9392;SDS011;4736;52.508;13.422;2023-02-16T07:30:28;24.53;;;20.03;;
9392;SDS011;4736;52.508;13.422;2023-02-16T07:33:31;25.37;;;19.23;;
9392;SDS011;4736;52.508;13.422;2023-02-16T07:36:34;28.00;;;21.00;;
9392;SDS011;4736;52.508;13.422;2023-02-16T07:39:38;21.73;;;18.60;;
9392;SDS011;4736;52.508;13.422;2023-02-16T07:42:41;26.30;;;19.60;;
9392;SDS011;4736;52.508;13.422;2023-02-16T07:45:45;23.53;;;18.70;;
9392;SDS011;4736;52.508;13.422;2023-02-16T07:48:49;25.40;;;19.70;;
9392;SDS011;4736;52.508;13.422;2023-02-16T07:51:53;28.37;;;20.57;;
9392;SDS011;4736;52.508;13.422;2023-02-16T07:54:57;27.23;;;19.97;;
9392;SDS011;4736;52.508;13.422;2023-02-16T07:58:00;24.40;;;20.87;;
9392;SDS011;4736;52.508;13.422;2023-02-16T08:01:05;30.87;;;22.30;;
9392;SDS011;4736;52.508;13.422;2023-02-16T08:04:10;26.30;;;21.70;;
9392;SDS011;4736;52.508;13.422;2023-02-16T08:07:13;26.27;;;21.03;;
9392;SDS011;4736;52.508;13.422;2023-02-16T08:10:18;29.50;;;22.13;;
9392;SDS011;4736;52.508;13.422;2023-02-16T08:13:22;31.17;;;23.23;;
9392;SDS011;4736;52.508;13.422;2023-02-16T08:16:25;33.40;;;21.97;;
9392;SDS011;4736;52.508;13.422;2023-02-16T08:19:30;26.03;;;20.77;;
9392;SDS011;4736;52.508;13.422;2023-02-16T08:22:33;24.53;;;21.30;;
9392;SDS011;4736;52.508;13.422;2023-02-16T08:25:37;26.60;;;21.80;;
9392;SDS011;4736;52.508;13.422;2023-02-16T08:28:40;26.20;;;21.07;;
9392;SDS011;4736;52.508;13.422;2023-02-16T08:31:46;26.83;;;21.40;;
9392;SDS011;4736;52.508;13.422;2023-02-16T08:34:50;27.97;;;22.33;;
9392;SDS011;4736;52.508;13.422;2023-02-16T08:37:53;31.33;;;23.23;;
9392;SDS011;4736;52.508;13.422;2023-02-16T08:40:57;28.90;;;22.87;;
9392;SDS011;4736;52.508;13.422;2023-02-16T08:44:01;33.50;;;24.60;;
9392;SDS011;4736;52.508;13.422;2023-02-16T08:47:04;30.77;;;21.47;;
9392;SDS011;4736;52.508;13.422;2023-02-16T08:50:09;31.90;;;23.47;;
9392;SDS011;4736;52.508;13.422;2023-02-16T08:53:13;28.17;;;21.30;;
9392;SDS011;4736;52.508;13.422;2023-02-16T08:56:17;34.50;;;22.77;;
9392;SDS011;4736;52.508;13.422;2023-02-16T08:59:21;32.97;;;23.33;;
9392;SDS011;4736;52.508;13.422;2023-02-16T09:02:28;36.87;;;23.23;;
9392;SDS011;4736;52.508;13.422;2023-02-16T09:05:31;29.23;;;22.37;;
9392;SDS011;4736;52.508;13.422;2023-02-16T09:08:35;31.50;;;23.17;;
9392;SDS011;4736;52.508;13.422;2023-02-16T09:11:40;30.43;;;23.47;;
9392;SDS011;4736;52.508;13.422;2023-02-16T09:14:43;32.17;;;22.77;;
9392;SDS011;4736;52.508;13.422;2023-02-16T09:17:47;30.30;;;22.97;;
9392;SDS011;4736;52.508;13.422;2023-02-16T09:20:50;33.93;;;23.23;;
9392;SDS011;4736;52.508;13.422;2023-02-16T09:23:53;29.97;;;22.23;;
9392;SDS011;4736;52.508;13.422;2023-02-16T09:26:59;31.97;;;23.03;;
9392;SDS011;4736;52.508;13.422;2023-02-16T09:30:05;32.47;;;24.23;;
9392;SDS011;4736;52.508;13.422;2023-02-16T09:33:11;28.63;;;22.67;;
9392;SDS011;4736;52.508;13.422;2023-02-16T09:36:15;32.60;;;23.23;;
9392;SDS011;4736;52.508;13.422;2023-02-16T09:39:19;29.73;;;21.97;;
9392;SDS011;4736;52.508;13.422;2023-02-16T09:42:27;32.07;;;23.47;;
9392;SDS011;4736;52.508;13.422;2023-02-16T09:45:38;30.70;;;22.47;;
9392;SDS011;4736;52.508;13.422;2023-02-16T09:48:44;28.83;;;23.00;;
9392;SDS011;4736;52.508;13.422;2023-02-16T09:51:52;30.13;;;24.00;;
9392;SDS011;4736;52.508;13.422;2023-02-16T09:55:04;32.33;;;23.57;;
9392;SDS011;4736;52.508;13.422;2023-02-16T09:58:13;29.30;;;23.60;;
9392;SDS011;4736;52.508;13.422;2023-02-16T10:01:21;34.10;;;23.77;;
9392;SDS011;4736;52.508;13.422;2023-02-16T10:04:32;31.53;;;24.50;;
9392;SDS011;4736;52.508;13.422;2023-02-16T10:07:49;31.57;;;23.50;;
9392;SDS011;4736;52.508;13.422;2023-02-16T10:11:06;32.80;;;24.10;;
9392;SDS011;4736;52.508;13.422;2023-02-16T10:14:36;33.20;;;23.20;;
9392;SDS011;4736;52.508;13.422;2023-02-16T10:17:44;31.13;;;24.00;;
9392;SDS011;4736;52.508;13.422;2023-02-16T10:20:50;34.37;;;25.33;;
9392;SDS011;4736;52.508;13.422;2023-02-16T10:23:56;33.70;;;25.00;;
9392;SDS011;4736;52.508;13.422;2023-02-16T10:27:04;30.43;;;23.57;;
9392;SDS011;4736;52.508;13.422;2023-02-16T10:30:15;31.87;;;24.97;;
9392;SDS011;4736;52.508;13.422;2023-02-16T10:33:23;32.07;;;23.67;;
9392;SDS011;4736;52.508;13.422;2023-02-16T10:36:39;32.50;;;24.07;;
9392;SDS011;4736;52.508;13.422;2023-02-16T10:39:55;26.97;;;22.90;;
9392;SDS011;4736;52.508;13.422;2023-02-16T10:43:11;33.27;;;23.10;;
9392;SDS011;4736;52.508;13.422;2023-02-16T10:46:21;37.10;;;23.80;;
9392;SDS011;4736;52.508;13.422;2023-02-16T10:49:26;31.47;;;23.90;;
9392;SDS011;4736;52.508;13.422;2023-02-16T10:52:32;30.33;;;24.70;;
9392;SDS011;4736;52.508;13.422;2023-02-16T10:55:41;30.57;;;24.43;;
9392;SDS011;4736;52.508;13.422;2023-02-16T10:58:44;30.03;;;22.60;;
9392;SDS011;4736;52.508;13.422;2023-02-16T11:01:51;32.77;;;24.83;;
9392;SDS011;4736;52.508;13.422;2023-02-16T11:04:56;32.93;;;25.03;;
9392;SDS011;4736;52.508;13.422;2023-02-16T11:08:00;32.47;;;24.73;;
9392;SDS011;4736;52.508;13.422;2023-02-16T11:11:06;30.23;;;24.20;;
9392;SDS011;4736;52.508;13.422;2023-02-16T11:14:17;34.30;;;24.07;;
9392;SDS011;4736;52.508;13.422;2023-02-16T11:17:25;33.90;;;24.90;;
9392;SDS011;4736;52.508;13.422;2023-02-16T11:20:29;30.63;;;23.33;;
9392;SDS011;4736;52.508;13.422;2023-02-16T11:23:34;35.37;;;24.57;;
9392;SDS011;4736;52.508;13.422;2023-02-16T11:26:38;31.17;;;25.17;;
9392;SDS011;4736;52.508;13.422;2023-02-16T11:29:41;32.57;;;25.20;;
9392;SDS011;4736;52.508;13.422;2023-02-16T11:32:45;33.93;;;25.73;;
9392;SDS011;4736;52.508;13.422;2023-02-16T11:35:49;34.27;;;25.10;;
9392;SDS011;4736;52.508;13.422;2023-02-16T11:38:54;31.00;;;24.47;;
9392;SDS011;4736;52.508;13.422;2023-02-16T11:42:01;34.33;;;24.10;;
9392;SDS011;4736;52.508;13.422;2023-02-16T11:45:15;33.47;;;25.80;;
9392;SDS011;4736;52.508;13.422;2023-02-16T11:48:27;36.13;;;24.70;;
9392;SDS011;4736;52.508;13.422;2023-02-16T11:51:32;31.63;;;24.20;;
9392;SDS011;4736;52.508;13.422;2023-02-16T11:54:36;38.80;;;25.83;;
9392;SDS011;4736;52.508;13.422;2023-02-16T11:57:49;33.03;;;24.43;;
9392;SDS011;4736;52.508;13.422;2023-02-16T12:00:54;32.70;;;23.10;;
9392;SDS011;4736;52.508;13.422;2023-02-16T12:04:10;31.43;;;24.30;;
9392;SDS011;4736;52.508;13.422;2023-02-16T12:07:24;30.37;;;23.17;;
9392;SDS011;4736;52.508;13.422;2023-02-16T12:10:34;27.50;;;22.87;;
9392;SDS011;4736;52.508;13.422;2023-02-16T12:13:43;28.50;;;22.87;;
9392;SDS011;4736;52.508;13.422;2023-02-16T12:16:57;29.33;;;24.50;;
9392;SDS011;4736;52.508;13.422;2023-02-16T12:20:13;29.27;;;23.13;;
9392;SDS011;4736;52.508;13.422;2023-02-16T12:23:35;32.20;;;22.83;;
9392;SDS011;4736;52.508;13.422;2023-02-16T12:26:41;34.50;;;24.13;;
9392;SDS011;4736;52.508;13.422;2023-02-16T12:29:53;30.37;;;23.53;;
9392;SDS011;4736;52.508;13.422;2023-02-16T12:33:08;34.73;;;22.97;;
9392;SDS011;4736;52.508;13.422;2023-02-16T12:40:01;27.63;;;21.13;;
9392;SDS011;4736;52.508;13.422;2023-02-16T12:43:19;28.77;;;22.67;;
9392;SDS011;4736;52.508;13.422;2023-02-16T12:46:34;33.23;;;23.10;;
9392;SDS011;4736;52.508;13.422;2023-02-16T12:49:42;31.17;;;22.37;;
9392;SDS011;4736;52.508;13.422;2023-02-16T12:52:54;33.33;;;21.07;;
9392;SDS011;4736;52.508;13.422;2023-02-16T12:56:02;31.77;;;22.07;;
9392;SDS011;4736;52.508;13.422;2023-02-16T12:59:14;25.93;;;20.93;;
9392;SDS011;4736;52.508;13.422;2023-02-16T13:02:22;28.93;;;23.13;;
9392;SDS011;4736;52.508;13.422;2023-02-16T13:05:30;26.97;;;20.97;;
9392;SDS011;4736;52.508;13.422;2023-02-16T13:08:41;25.57;;;20.13;;
9392;SDS011;4736;52.508;13.422;2023-02-16T13:11:47;25.40;;;19.87;;
9392;SDS011;4736;52.508;13.422;2023-02-16T13:14:56;32.37;;;20.80;;
9392;SDS011;4736;52.508;13.422;2023-02-16T13:18:11;25.17;;;19.63;;
9392;SDS011;4736;52.508;13.422;2023-02-16T13:21:28;25.20;;;19.03;;
9392;SDS011;4736;52.508;13.422;2023-02-16T13:24:58;25.83;;;20.23;;
9392;SDS011;4736;52.508;13.422;2023-02-16T13:28:22;27.77;;;21.53;;
9392;SDS011;4736;52.508;13.422;2023-02-16T13:31:43;30.40;;;21.00;;
9392;SDS011;4736;52.508;13.422;2023-02-16T13:35:00;27.70;;;21.13;;
9392;SDS011;4736;52.508;13.422;2023-02-16T13:45:27;27.27;;;19.93;;
9392;SDS011;4736;52.508;13.422;2023-02-16T13:48:36;27.80;;;20.17;;
9392;SDS011;4736;52.508;13.422;2023-02-16T13:51:42;33.13;;;20.20;;
9392;SDS011;4736;52.508;13.422;2023-02-16T13:54:47;26.07;;;19.47;;
9392;SDS011;4736;52.508;13.422;2023-02-16T13:57:57;26.87;;;19.87;;
9392;SDS011;4736;52.508;13.422;2023-02-16T14:04:59;23.53;;;18.93;;
9392;SDS011;4736;52.508;13.422;2023-02-16T14:08:08;28.30;;;20.17;;
9392;SDS011;4736;52.508;13.422;2023-02-16T14:11:22;27.43;;;19.87;;
9392;SDS011;4736;52.508;13.422;2023-02-16T14:14:28;25.10;;;20.10;;
9392;SDS011;4736;52.508;13.422;2023-02-16T14:17:33;25.33;;;19.00;;
9392;SDS011;4736;52.508;13.422;2023-02-16T14:20:37;29.03;;;19.93;;
9392;SDS011;4736;52.508;13.422;2023-02-16T14:23:40;26.57;;;19.20;;
9392;SDS011;4736;52.508;13.422;2023-02-16T14:26:51;28.77;;;18.93;;
9392;SDS011;4736;52.508;13.422;2023-02-16T14:29:57;23.27;;;18.87;;
9392;SDS011;4736;52.508;13.422;2023-02-16T14:33:04;31.77;;;19.23;;
9392;SDS011;4736;52.508;13.422;2023-02-16T14:36:18;22.90;;;18.43;;
9392;SDS011;4736;52.508;13.422;2023-02-16T14:39:24;22.07;;;17.27;;
9392;SDS011;4736;52.508;13.422;2023-02-16T14:42:30;25.10;;;18.87;;
9392;SDS011;4736;52.508;13.422;2023-02-16T14:49:46;22.50;;;18.70;;
9392;SDS011;4736;52.508;13.422;2023-02-16T14:53:19;27.27;;;18.93;;
9392;SDS011;4736;52.508;13.422;2023-02-16T14:56:43;24.73;;;18.33;;
9392;SDS011;4736;52.508;13.422;2023-02-16T14:59:52;25.03;;;18.07;;
9392;SDS011;4736;52.508;13.422;2023-02-16T15:03:03;29.20;;;18.43;;
9392;SDS011;4736;52.508;13.422;2023-02-16T15:06:17;28.20;;;17.93;;
9392;SDS011;4736;52.508;13.422;2023-02-16T15:09:25;23.87;;;19.00;;
9392;SDS011;4736;52.508;13.422;2023-02-16T15:12:31;21.97;;;17.30;;
9392;SDS011;4736;52.508;13.422;2023-02-16T15:15:40;26.37;;;18.73;;
9392;SDS011;4736;52.508;13.422;2023-02-16T15:18:49;26.10;;;18.53;;
9392;SDS011;4736;52.508;13.422;2023-02-16T15:22:06;24.90;;;17.57;;
9392;SDS011;4736;52.508;13.422;2023-02-16T15:25:21;23.43;;;17.50;;
9392;SDS011;4736;52.508;13.422;2023-02-16T15:28:27;24.27;;;18.60;;
9392;SDS011;4736;52.508;13.422;2023-02-16T15:31:33;25.10;;;17.10;;
9392;SDS011;4736;52.508;13.422;2023-02-16T15:34:45;19.47;;;16.90;;
9392;SDS011;4736;52.508;13.422;2023-02-16T15:37:48;26.23;;;17.27;;
9392;SDS011;4736;52.508;13.422;2023-02-16T15:41:05;22.83;;;18.00;;
9392;SDS011;4736;52.508;13.422;2023-02-16T15:44:14;23.70;;;17.30;;
9392;SDS011;4736;52.508;13.422;2023-02-16T15:47:32;23.50;;;16.57;;
9392;SDS011;4736;52.508;13.422;2023-02-16T15:50:37;25.43;;;17.37;;
9392;SDS011;4736;52.508;13.422;2023-02-16T15:53:42;21.30;;;16.87;;
9392;SDS011;4736;52.508;13.422;2023-02-16T15:56:48;24.13;;;17.20;;
9392;SDS011;4736;52.508;13.422;2023-02-16T15:59:54;22.20;;;16.50;;
9392;SDS011;4736;52.508;13.422;2023-02-16T16:02:59;25.33;;;18.27;;
9392;SDS011;4736;52.508;13.422;2023-02-16T16:06:04;23.33;;;18.43;;
9392;SDS011;4736;52.508;13.422;2023-02-16T16:09:09;23.43;;;17.43;;
9392;SDS011;4736;52.508;13.422;2023-02-16T16:12:21;23.93;;;17.70;;
9392;SDS011;4736;52.508;13.422;2023-02-16T16:15:26;27.70;;;16.83;;
9392;SDS011;4736;52.508;13.422;2023-02-16T16:18:34;28.67;;;18.20;;
9392;SDS011;4736;52.508;13.422;2023-02-16T16:21:47;25.33;;;17.17;;
9392;SDS011;4736;52.508;13.422;2023-02-16T16:24:54;19.23;;;16.53;;
9392;SDS011;4736;52.508;13.422;2023-02-16T16:27:57;22.30;;;17.80;;
9392;SDS011;4736;52.508;13.422;2023-02-16T16:31:07;21.30;;;17.00;;
9392;SDS011;4736;52.508;13.422;2023-02-16T16:34:29;22.30;;;17.70;;
9392;SDS011;4736;52.508;13.422;2023-02-16T16:37:35;29.00;;;17.43;;
9392;SDS011;4736;52.508;13.422;2023-02-16T16:40:38;24.30;;;17.77;;
9392;SDS011;4736;52.508;13.422;2023-02-16T16:43:49;19.57;;;16.00;;
9392;SDS011;4736;52.508;13.422;2023-02-16T16:46:55;23.67;;;16.30;;
9392;SDS011;4736;52.508;13.422;2023-02-16T16:49:58;23.87;;;17.40;;
9392;SDS011;4736;52.508;13.422;2023-02-16T16:56:41;23.03;;;16.40;;
9392;SDS011;4736;52.508;13.422;2023-02-16T16:59:45;21.70;;;16.03;;
9392;SDS011;4736;52.508;13.422;2023-02-16T17:02:48;24.37;;;18.70;;
9392;SDS011;4736;52.508;13.422;2023-02-16T17:05:51;21.63;;;16.53;;
9392;SDS011;4736;52.508;13.422;2023-02-16T17:08:56;23.97;;;18.03;;
9392;SDS011;4736;52.508;13.422;2023-02-16T17:11:59;24.33;;;15.33;;
9392;SDS011;4736;52.508;13.422;2023-02-16T17:15:03;19.13;;;14.60;;
9392;SDS011;4736;52.508;13.422;2023-02-16T17:18:12;20.30;;;15.57;;
9392;SDS011;4736;52.508;13.422;2023-02-16T17:21:16;23.50;;;17.70;;
9392;SDS011;4736;52.508;13.422;2023-02-16T17:24:21;27.60;;;18.83;;
9392;SDS011;4736;52.508;13.422;2023-02-16T17:27:24;28.83;;;19.57;;
9392;SDS011;4736;52.508;13.422;2023-02-16T17:30:27;26.67;;;18.37;;
9392;SDS011;4736;52.508;13.422;2023-02-16T17:33:31;23.93;;;17.37;;
9392;SDS011;4736;52.508;13.422;2023-02-16T17:36:34;26.33;;;18.27;;
9392;SDS011;4736;52.508;13.422;2023-02-16T17:39:40;23.30;;;18.10;;
9392;SDS011;4736;52.508;13.422;2023-02-16T17:42:43;27.50;;;19.50;;
9392;SDS011;4736;52.508;13.422;2023-02-16T17:45:47;23.37;;;16.67;;
9392;SDS011;4736;52.508;13.422;2023-02-16T17:48:52;21.60;;;17.57;;
9392;SDS011;4736;52.508;13.422;2023-02-16T17:51:56;26.87;;;19.33;;
9392;SDS011;4736;52.508;13.422;2023-02-16T17:55:00;24.60;;;19.33;;
9392;SDS011;4736;52.508;13.422;2023-02-16T17:58:03;26.47;;;20.13;;
9392;SDS011;4736;52.508;13.422;2023-02-16T18:01:08;31.03;;;18.83;;
9392;SDS011;4736;52.508;13.422;2023-02-16T18:04:14;23.77;;;19.03;;
9392;SDS011;4736;52.508;13.422;2023-02-16T18:07:17;25.43;;;18.57;;
9392;SDS011;4736;52.508;13.422;2023-02-16T18:10:31;29.70;;;20.47;;
9392;SDS011;4736;52.508;13.422;2023-02-16T18:13:37;24.13;;;20.43;;
9392;SDS011;4736;52.508;13.422;2023-02-16T18:16:41;26.23;;;20.10;;
9392;SDS011;4736;52.508;13.422;2023-02-16T18:19:45;26.03;;;20.97;;
9392;SDS011;4736;52.508;13.422;2023-02-16T18:22:48;31.10;;;21.27;;
9392;SDS011;4736;52.508;13.422;2023-02-16T18:25:52;26.10;;;20.27;;
9392;SDS011;4736;52.508;13.422;2023-02-16T18:28:56;28.27;;;20.57;;
9392;SDS011;4736;52.508;13.422;2023-02-16T18:31:59;27.27;;;21.50;;
9392;SDS011;4736;52.508;13.422;2023-02-16T18:35:03;27.90;;;22.63;;
9392;SDS011;4736;52.508;13.422;2023-02-16T18:38:07;28.27;;;21.73;;
9392;SDS011;4736;52.508;13.422;2023-02-16T18:41:12;29.23;;;21.87;;
9392;SDS011;4736;52.508;13.422;2023-02-16T18:44:16;28.00;;;20.87;;
9392;SDS011;4736;52.508;13.422;2023-02-16T18:47:19;24.23;;;19.63;;
9392;SDS011;4736;52.508;13.422;2023-02-16T18:50:22;26.57;;;20.90;;
9392;SDS011;4736;52.508;13.422;2023-02-16T18:53:25;27.00;;;20.63;;
9392;SDS011;4736;52.508;13.422;2023-02-16T18:56:30;25.23;;;21.10;;
9392;SDS011;4736;52.508;13.422;2023-02-16T18:59:35;27.00;;;21.90;;